sensor_id;sensor_type;location;lat;lon;timestamp;temperature;humidity
12720;DHT22;6424;48.520;11.228;2022-07-29T00:00:41;18.80;99.90
12720;DHT22;6424;48.520;11.228;2022-07-29T00:03:25;18.70;99.90
12720;DHT22;6424;48.520;11.228;2022-07-29T00:06:06;18.60;99.90
12720;DHT22;6424;48.520;11.228;2022-07-29T00:08:46;18.60;99.90
12720;DHT22;6424;48.520;11.228;2022-07-29T00:11:27;18.50;99.90
12720;DHT22;6424;48.520;11.228;2022-07-29T00:14:08;18.40;99.90
12720;DHT22;6424;48.520;11.228;2022-07-29T00:16:49;18.40;99.90
12720;DHT22;6424;48.520;11.228;2022-07-29T00:19:30;18.30;99.90
12720;DHT22;6424;48.520;11.228;2022-07-29T00:22:11;18.30;99.90
12720;DHT22;6424;48.520;11.228;2022-07-29T00:24:51;18.30;99.90
12720;DHT22;6424;48.520;11.228;2022-07-29T00:27:32;18.30;99.90
12720;DHT22;6424;48.520;11.228;2022-07-29T00:30:13;18.30;99.90
12720;DHT22;6424;48.520;11.228;2022-07-29T00:32:54;18.30;99.90
12720;DHT22;6424;48.520;11.228;2022-07-29T00:35:34;18.30;99.90
12720;DHT22;6424;48.520;11.228;2022-07-29T00:38:24;18.20;99.90
12720;DHT22;6424;48.520;11.228;2022-07-29T00:41:05;18.20;99.90
12720;DHT22;6424;48.520;11.228;2022-07-29T00:43:46;18.10;99.90
12720;DHT22;6424;48.520;11.228;2022-07-29T00:46:27;18.10;99.90
12720;DHT22;6424;48.520;11.228;2022-07-29T00:49:08;18.10;99.90
12720;DHT22;6424;48.520;11.228;2022-07-29T00:51:49;18.10;99.90
12720;DHT22;6424;48.520;11.228;2022-07-29T00:54:30;18.00;99.90
12720;DHT22;6424;48.520;11.228;2022-07-29T00:57:11;18.00;99.90
12720;DHT22;6424;48.520;11.228;2022-07-29T00:59:52;18.00;99.90
12720;DHT22;6424;48.520;11.228;2022-07-29T01:02:33;18.10;99.90
12720;DHT22;6424;48.520;11.228;2022-07-29T01:05:17;18.10;99.90
12720;DHT22;6424;48.520;11.228;2022-07-29T01:07:59;18.10;99.90
12720;DHT22;6424;48.520;11.228;2022-07-29T01:10:40;18.10;99.90
12720;DHT22;6424;48.520;11.228;2022-07-29T01:13:22;18.10;99.90
12720;DHT22;6424;48.520;11.228;2022-07-29T01:16:07;18.20;99.90
12720;DHT22;6424;48.520;11.228;2022-07-29T01:18:54;18.20;99.90
12720;DHT22;6424;48.520;11.228;2022-07-29T01:21:51;18.20;99.90
12720;DHT22;6424;48.520;11.228;2022-07-29T01:24:46;18.10;99.90
12720;DHT22;6424;48.520;11.228;2022-07-29T01:30:11;18.00;99.90
12720;DHT22;6424;48.520;11.228;2022-07-29T01:32:58;18.00;99.90
12720;DHT22;6424;48.520;11.228;2022-07-29T01:35:41;18.00;99.90
12720;DHT22;6424;48.520;11.228;2022-07-29T01:38:25;18.00;99.90
12720;DHT22;6424;48.520;11.228;2022-07-29T01:41:16;18.00;99.90
12720;DHT22;6424;48.520;11.228;2022-07-29T01:44:11;17.90;99.90
12720;DHT22;6424;48.520;11.228;2022-07-29T01:46:57;17.90;99.90
12720;DHT22;6424;48.520;11.228;2022-07-29T01:49:43;17.90;99.90
12720;DHT22;6424;48.520;11.228;2022-07-29T01:52:41;17.80;99.90
12720;DHT22;6424;48.520;11.228;2022-07-29T01:55:13;17.80;99.90
12720;DHT22;6424;48.520;11.228;2022-07-29T01:57:58;17.80;99.90
12720;DHT22;6424;48.520;11.228;2022-07-29T02:00:40;17.80;99.90
12720;DHT22;6424;48.520;11.228;2022-07-29T02:03:22;17.70;99.90
12720;DHT22;6424;48.520;11.228;2022-07-29T02:06:06;17.70;99.90
12720;DHT22;6424;48.520;11.228;2022-07-29T02:08:49;17.60;99.90
12720;DHT22;6424;48.520;11.228;2022-07-29T02:11:35;17.60;99.90
12720;DHT22;6424;48.520;11.228;2022-07-29T02:14:19;17.60;99.90
12720;DHT22;6424;48.520;11.228;2022-07-29T02:16:47;17.60;99.90
12720;DHT22;6424;48.520;11.228;2022-07-29T02:19:32;17.60;99.90
12720;DHT22;6424;48.520;11.228;2022-07-29T02:22:14;17.60;99.90
12720;DHT22;6424;48.520;11.228;2022-07-29T02:24:55;17.50;99.90
12720;DHT22;6424;48.520;11.228;2022-07-29T02:27:38;17.50;99.90
12720;DHT22;6424;48.520;11.228;2022-07-29T02:30:21;17.50;99.90
12720;DHT22;6424;48.520;11.228;2022-07-29T02:33:03;17.50;99.90
12720;DHT22;6424;48.520;11.228;2022-07-29T02:35:46;17.50;99.90
12720;DHT22;6424;48.520;11.228;2022-07-29T02:38:28;17.50;99.90
12720;DHT22;6424;48.520;11.228;2022-07-29T02:41:30;17.40;99.90
12720;DHT22;6424;48.520;11.228;2022-07-29T02:44:14;17.40;99.90
12720;DHT22;6424;48.520;11.228;2022-07-29T02:52:58;17.40;99.90
12720;DHT22;6424;48.520;11.228;2022-07-29T02:55:45;17.40;99.90
12720;DHT22;6424;48.520;11.228;2022-07-29T03:01:24;17.30;99.90
12720;DHT22;6424;48.520;11.228;2022-07-29T03:04:06;17.30;99.90
12720;DHT22;6424;48.520;11.228;2022-07-29T03:06:49;17.30;99.90
12720;DHT22;6424;48.520;11.228;2022-07-29T03:09:31;17.20;99.90
12720;DHT22;6424;48.520;11.228;2022-07-29T03:12:14;17.20;99.90
12720;DHT22;6424;48.520;11.228;2022-07-29T03:14:55;17.20;99.90
12720;DHT22;6424;48.520;11.228;2022-07-29T03:17:37;17.30;99.90
12720;DHT22;6424;48.520;11.228;2022-07-29T03:20:19;17.30;99.90
12720;DHT22;6424;48.520;11.228;2022-07-29T03:23:01;17.20;99.90
12720;DHT22;6424;48.520;11.228;2022-07-29T03:25:43;17.20;99.90
12720;DHT22;6424;48.520;11.228;2022-07-29T03:28:23;17.20;99.90
12720;DHT22;6424;48.520;11.228;2022-07-29T03:31:04;17.10;99.90
12720;DHT22;6424;48.520;11.228;2022-07-29T03:33:30;17.10;99.90
12720;DHT22;6424;48.520;11.228;2022-07-29T03:36:11;17.00;99.90
12720;DHT22;6424;48.520;11.228;2022-07-29T03:38:52;17.00;99.90
12720;DHT22;6424;48.520;11.228;2022-07-29T03:41:33;16.90;99.90
12720;DHT22;6424;48.520;11.228;2022-07-29T03:44:16;17.00;99.90
12720;DHT22;6424;48.520;11.228;2022-07-29T03:46:44;16.90;99.90
12720;DHT22;6424;48.520;11.228;2022-07-29T03:49:26;16.90;99.90
12720;DHT22;6424;48.520;11.228;2022-07-29T03:52:08;16.90;99.90
12720;DHT22;6424;48.520;11.228;2022-07-29T03:54:49;16.80;99.90
12720;DHT22;6424;48.520;11.228;2022-07-29T03:57:31;16.80;99.90
12720;DHT22;6424;48.520;11.228;2022-07-29T04:00:13;16.70;99.90
12720;DHT22;6424;48.520;11.228;2022-07-29T04:02:56;16.80;99.90
12720;DHT22;6424;48.520;11.228;2022-07-29T04:05:37;16.80;99.90
12720;DHT22;6424;48.520;11.228;2022-07-29T04:08:18;16.80;99.90
12720;DHT22;6424;48.520;11.228;2022-07-29T04:11:00;16.90;99.90
12720;DHT22;6424;48.520;11.228;2022-07-29T04:13:41;16.90;99.90
12720;DHT22;6424;48.520;11.228;2022-07-29T04:16:06;17.00;99.90
12720;DHT22;6424;48.520;11.228;2022-07-29T04:18:47;17.00;99.90
12720;DHT22;6424;48.520;11.228;2022-07-29T04:21:28;17.00;99.90
12720;DHT22;6424;48.520;11.228;2022-07-29T04:23:54;17.00;99.90
12720;DHT22;6424;48.520;11.228;2022-07-29T04:26:35;17.00;99.90
12720;DHT22;6424;48.520;11.228;2022-07-29T04:29:15;17.00;99.90
12720;DHT22;6424;48.520;11.228;2022-07-29T04:31:56;16.90;99.90
12720;DHT22;6424;48.520;11.228;2022-07-29T04:34:37;16.90;99.90
12720;DHT22;6424;48.520;11.228;2022-07-29T04:37:18;16.90;99.90
12720;DHT22;6424;48.520;11.228;2022-07-29T04:39:59;17.00;99.90
12720;DHT22;6424;48.520;11.228;2022-07-29T04:42:40;17.00;99.90
12720;DHT22;6424;48.520;11.228;2022-07-29T04:45:06;17.00;99.90
12720;DHT22;6424;48.520;11.228;2022-07-29T04:47:47;17.00;99.90
12720;DHT22;6424;48.520;11.228;2022-07-29T04:50:12;17.10;99.90
12720;DHT22;6424;48.520;11.228;2022-07-29T04:52:53;17.10;99.90
12720;DHT22;6424;48.520;11.228;2022-07-29T04:55:34;17.10;99.90
12720;DHT22;6424;48.520;11.228;2022-07-29T04:58:15;17.20;99.90
12720;DHT22;6424;48.520;11.228;2022-07-29T05:00:56;17.20;99.90
12720;DHT22;6424;48.520;11.228;2022-07-29T05:03:36;17.40;99.90
12720;DHT22;6424;48.520;11.228;2022-07-29T05:06:17;18.00;99.90
12720;DHT22;6424;48.520;11.228;2022-07-29T05:08:58;18.80;99.90
12720;DHT22;6424;48.520;11.228;2022-07-29T05:11:39;19.70;99.90
12720;DHT22;6424;48.520;11.228;2022-07-29T05:14:20;20.90;99.90
12720;DHT22;6424;48.520;11.228;2022-07-29T05:17:01;22.30;99.90
12720;DHT22;6424;48.520;11.228;2022-07-29T05:19:41;23.60;99.90
12720;DHT22;6424;48.520;11.228;2022-07-29T05:22:22;24.70;99.90
12720;DHT22;6424;48.520;11.228;2022-07-29T05:25:03;25.70;99.90
12720;DHT22;6424;48.520;11.228;2022-07-29T05:27:30;26.50;99.90
12720;DHT22;6424;48.520;11.228;2022-07-29T05:30:11;26.70;99.90
12720;DHT22;6424;48.520;11.228;2022-07-29T05:32:51;26.70;99.90
12720;DHT22;6424;48.520;11.228;2022-07-29T05:35:18;26.70;99.90
12720;DHT22;6424;48.520;11.228;2022-07-29T05:37:58;27.10;99.90
12720;DHT22;6424;48.520;11.228;2022-07-29T05:40:39;27.60;99.90
12720;DHT22;6424;48.520;11.228;2022-07-29T05:43:20;28.10;99.90
12720;DHT22;6424;48.520;11.228;2022-07-29T05:46:01;28.00;99.90
12720;DHT22;6424;48.520;11.228;2022-07-29T05:48:42;27.70;99.90
12720;DHT22;6424;48.520;11.228;2022-07-29T05:51:23;27.90;99.90
12720;DHT22;6424;48.520;11.228;2022-07-29T05:54:04;28.10;99.90
12720;DHT22;6424;48.520;11.228;2022-07-29T05:56:44;28.40;99.90
12720;DHT22;6424;48.520;11.228;2022-07-29T05:59:25;28.30;99.90
12720;DHT22;6424;48.520;11.228;2022-07-29T06:02:06;28.20;99.90
12720;DHT22;6424;48.520;11.228;2022-07-29T06:04:33;28.00;99.90
12720;DHT22;6424;48.520;11.228;2022-07-29T06:07:13;27.80;99.90
12720;DHT22;6424;48.520;11.228;2022-07-29T06:09:54;27.70;99.60
12720;DHT22;6424;48.520;11.228;2022-07-29T06:12:35;27.50;99.90
12720;DHT22;6424;48.520;11.228;2022-07-29T06:15:16;27.40;99.80
12720;DHT22;6424;48.520;11.228;2022-07-29T06:17:57;27.10;99.90
12720;DHT22;6424;48.520;11.228;2022-07-29T06:20:37;26.90;99.90
12720;DHT22;6424;48.520;11.228;2022-07-29T06:23:19;26.90;99.90
12720;DHT22;6424;48.520;11.228;2022-07-29T06:25:46;26.90;99.90
12720;DHT22;6424;48.520;11.228;2022-07-29T06:28:26;27.00;99.90
12720;DHT22;6424;48.520;11.228;2022-07-29T06:31:07;27.00;99.90
12720;DHT22;6424;48.520;11.228;2022-07-29T06:33:48;27.00;99.90
12720;DHT22;6424;48.520;11.228;2022-07-29T06:36:29;26.90;99.90
12720;DHT22;6424;48.520;11.228;2022-07-29T06:38:55;26.60;99.70
12720;DHT22;6424;48.520;11.228;2022-07-29T06:41:36;26.30;99.90
12720;DHT22;6424;48.520;11.228;2022-07-29T06:44:17;26.00;99.90
12720;DHT22;6424;48.520;11.228;2022-07-29T06:46:58;25.80;99.90
12720;DHT22;6424;48.520;11.228;2022-07-29T06:49:39;25.80;99.90
12720;DHT22;6424;48.520;11.228;2022-07-29T06:52:20;25.80;99.90
12720;DHT22;6424;48.520;11.228;2022-07-29T06:55:00;25.90;99.90
12720;DHT22;6424;48.520;11.228;2022-07-29T06:57:41;25.90;99.90
12720;DHT22;6424;48.520;11.228;2022-07-29T07:00:22;25.90;99.90
12720;DHT22;6424;48.520;11.228;2022-07-29T07:03:03;26.00;99.90
12720;DHT22;6424;48.520;11.228;2022-07-29T07:05:45;25.90;99.90
12720;DHT22;6424;48.520;11.228;2022-07-29T07:08:26;25.80;99.90
12720;DHT22;6424;48.520;11.228;2022-07-29T07:11:07;25.70;99.90
12720;DHT22;6424;48.520;11.228;2022-07-29T07:13:48;25.70;99.90
12720;DHT22;6424;48.520;11.228;2022-07-29T07:16:29;25.80;97.90
12720;DHT22;6424;48.520;11.228;2022-07-29T07:19:09;25.80;96.80
12720;DHT22;6424;48.520;11.228;2022-07-29T07:21:50;26.00;97.70
12720;DHT22;6424;48.520;11.228;2022-07-29T07:24:31;26.10;97.20
12720;DHT22;6424;48.520;11.228;2022-07-29T07:27:12;26.30;94.90
12720;DHT22;6424;48.520;11.228;2022-07-29T07:29:52;26.50;96.20
12720;DHT22;6424;48.520;11.228;2022-07-29T07:32:34;26.50;94.20
12720;DHT22;6424;48.520;11.228;2022-07-29T07:35:15;26.60;93.80
12720;DHT22;6424;48.520;11.228;2022-07-29T07:37:56;26.60;92.20
12720;DHT22;6424;48.520;11.228;2022-07-29T07:40:37;26.40;92.10
12720;DHT22;6424;48.520;11.228;2022-07-29T07:43:03;26.30;92.70
12720;DHT22;6424;48.520;11.228;2022-07-29T07:45:43;26.40;93.30
12720;DHT22;6424;48.520;11.228;2022-07-29T07:48:24;26.60;92.70
12720;DHT22;6424;48.520;11.228;2022-07-29T07:51:05;26.80;93.10
12720;DHT22;6424;48.520;11.228;2022-07-29T07:53:46;26.90;91.60
12720;DHT22;6424;48.520;11.228;2022-07-29T07:56:29;27.00;90.60
12720;DHT22;6424;48.520;11.228;2022-07-29T07:59:10;27.20;89.80
12720;DHT22;6424;48.520;11.228;2022-07-29T08:01:51;27.20;86.30
12720;DHT22;6424;48.520;11.228;2022-07-29T08:04:33;27.10;87.90
12720;DHT22;6424;48.520;11.228;2022-07-29T08:07:14;27.00;85.80
12720;DHT22;6424;48.520;11.228;2022-07-29T08:09:55;27.00;87.20
12720;DHT22;6424;48.520;11.228;2022-07-29T08:12:36;27.10;90.20
12720;DHT22;6424;48.520;11.228;2022-07-29T08:15:16;27.30;89.10
12720;DHT22;6424;48.520;11.228;2022-07-29T08:17:57;27.40;85.70
12720;DHT22;6424;48.520;11.228;2022-07-29T08:20:38;27.50;86.70
12720;DHT22;6424;48.520;11.228;2022-07-29T08:23:20;27.60;89.20
12720;DHT22;6424;48.520;11.228;2022-07-29T08:26:01;27.70;84.50
12720;DHT22;6424;48.520;11.228;2022-07-29T08:28:43;27.80;85.20
12720;DHT22;6424;48.520;11.228;2022-07-29T08:31:26;27.70;83.20
12720;DHT22;6424;48.520;11.228;2022-07-29T08:34:06;27.50;84.30
12720;DHT22;6424;48.520;11.228;2022-07-29T08:36:47;27.30;87.70
12720;DHT22;6424;48.520;11.228;2022-07-29T08:39:28;27.30;85.60
12720;DHT22;6424;48.520;11.228;2022-07-29T08:42:10;27.10;86.20
12720;DHT22;6424;48.520;11.228;2022-07-29T08:44:51;27.00;87.90
12720;DHT22;6424;48.520;11.228;2022-07-29T08:47:34;26.80;87.20
12720;DHT22;6424;48.520;11.228;2022-07-29T08:50:19;26.60;89.90
12720;DHT22;6424;48.520;11.228;2022-07-29T08:52:44;26.50;90.60
12720;DHT22;6424;48.520;11.228;2022-07-29T08:55:25;26.40;90.40
12720;DHT22;6424;48.520;11.228;2022-07-29T08:58:07;26.20;91.10
12720;DHT22;6424;48.520;11.228;2022-07-29T09:00:54;26.20;91.80
12720;DHT22;6424;48.520;11.228;2022-07-29T09:03:37;26.30;91.60
12720;DHT22;6424;48.520;11.228;2022-07-29T09:06:20;26.40;92.10
12720;DHT22;6424;48.520;11.228;2022-07-29T09:09:01;26.50;92.20
12720;DHT22;6424;48.520;11.228;2022-07-29T09:11:43;26.70;91.20
12720;DHT22;6424;48.520;11.228;2022-07-29T09:14:24;26.70;90.90
12720;DHT22;6424;48.520;11.228;2022-07-29T09:17:05;26.50;91.30
12720;DHT22;6424;48.520;11.228;2022-07-29T09:19:46;26.50;91.80
12720;DHT22;6424;48.520;11.228;2022-07-29T09:22:13;26.40;92.40
12720;DHT22;6424;48.520;11.228;2022-07-29T09:25:11;26.40;93.30
12720;DHT22;6424;48.520;11.228;2022-07-29T09:27:52;26.30;93.00
12720;DHT22;6424;48.520;11.228;2022-07-29T09:30:33;26.10;92.80
12720;DHT22;6424;48.520;11.228;2022-07-29T09:33:14;25.90;93.80
12720;DHT22;6424;48.520;11.228;2022-07-29T09:36:05;25.80;93.90
12720;DHT22;6424;48.520;11.228;2022-07-29T09:38:57;25.90;93.60
12720;DHT22;6424;48.520;11.228;2022-07-29T09:41:46;26.00;92.60
12720;DHT22;6424;48.520;11.228;2022-07-29T09:44:47;26.00;92.60
12720;DHT22;6424;48.520;11.228;2022-07-29T09:47:43;25.90;92.70
12720;DHT22;6424;48.520;11.228;2022-07-29T09:50:36;25.80;93.30
12720;DHT22;6424;48.520;11.228;2022-07-29T09:53:36;25.80;93.80
12720;DHT22;6424;48.520;11.228;2022-07-29T09:56:18;25.80;94.20
12720;DHT22;6424;48.520;11.228;2022-07-29T09:59:06;25.80;94.60
12720;DHT22;6424;48.520;11.228;2022-07-29T10:01:48;25.90;94.10
12720;DHT22;6424;48.520;11.228;2022-07-29T10:04:42;26.10;94.70
12720;DHT22;6424;48.520;11.228;2022-07-29T10:07:24;26.40;93.70
12720;DHT22;6424;48.520;11.228;2022-07-29T10:10:05;26.70;94.20
12720;DHT22;6424;48.520;11.228;2022-07-29T10:15:33;27.20;92.60
12720;DHT22;6424;48.520;11.228;2022-07-29T10:18:03;27.20;92.00
12720;DHT22;6424;48.520;11.228;2022-07-29T10:20:43;27.50;91.70
12720;DHT22;6424;48.520;11.228;2022-07-29T10:23:24;27.50;90.10
12720;DHT22;6424;48.520;11.228;2022-07-29T10:26:06;27.70;89.30
12720;DHT22;6424;48.520;11.228;2022-07-29T10:28:33;27.80;88.00
12720;DHT22;6424;48.520;11.228;2022-07-29T10:31:55;28.00;87.00
12720;DHT22;6424;48.520;11.228;2022-07-29T10:40:36;28.40;82.00
12720;DHT22;6424;48.520;11.228;2022-07-29T10:43:41;28.40;81.70
12720;DHT22;6424;48.520;11.228;2022-07-29T10:46:24;28.50;83.50
12720;DHT22;6424;48.520;11.228;2022-07-29T10:52:03;28.10;79.70
12720;DHT22;6424;48.520;11.228;2022-07-29T10:54:46;28.00;81.20
12720;DHT22;6424;48.520;11.228;2022-07-29T10:57:31;28.10;81.20
12720;DHT22;6424;48.520;11.228;2022-07-29T11:02:55;28.40;81.30
12720;DHT22;6424;48.520;11.228;2022-07-29T11:05:55;28.60;82.20
12720;DHT22;6424;48.520;11.228;2022-07-29T11:08:37;28.70;81.90
12720;DHT22;6424;48.520;11.228;2022-07-29T11:14:07;28.90;81.30
12720;DHT22;6424;48.520;11.228;2022-07-29T11:17:03;28.90;80.70
12720;DHT22;6424;48.520;11.228;2022-07-29T11:19:44;28.90;80.20
12720;DHT22;6424;48.520;11.228;2022-07-29T11:22:33;29.00;83.20
12720;DHT22;6424;48.520;11.228;2022-07-29T11:25:18;29.10;78.40
12720;DHT22;6424;48.520;11.228;2022-07-29T11:28:19;29.10;77.60
12720;DHT22;6424;48.520;11.228;2022-07-29T11:30:51;28.90;79.60
12720;DHT22;6424;48.520;11.228;2022-07-29T11:33:33;28.90;79.80
12720;DHT22;6424;48.520;11.228;2022-07-29T11:36:15;28.90;79.70
12720;DHT22;6424;48.520;11.228;2022-07-29T11:39:25;28.80;78.60
12720;DHT22;6424;48.520;11.228;2022-07-29T11:45:10;29.00;79.60
12720;DHT22;6424;48.520;11.228;2022-07-29T11:47:56;29.20;79.10
12720;DHT22;6424;48.520;11.228;2022-07-29T11:50:40;29.40;77.70
12720;DHT22;6424;48.520;11.228;2022-07-29T11:53:21;29.50;77.10
12720;DHT22;6424;48.520;11.228;2022-07-29T11:56:03;29.50;75.80
12720;DHT22;6424;48.520;11.228;2022-07-29T11:58:44;29.50;74.10
12720;DHT22;6424;48.520;11.228;2022-07-29T12:01:25;29.50;72.70
12720;DHT22;6424;48.520;11.228;2022-07-29T12:04:07;29.60;72.90
12720;DHT22;6424;48.520;11.228;2022-07-29T12:06:50;29.70;71.70
12720;DHT22;6424;48.520;11.228;2022-07-29T12:09:31;29.90;71.50
12720;DHT22;6424;48.520;11.228;2022-07-29T12:12:16;30.00;70.70
12720;DHT22;6424;48.520;11.228;2022-07-29T12:14:42;30.20;68.20
12720;DHT22;6424;48.520;11.228;2022-07-29T12:20:11;30.00;62.80
12720;DHT22;6424;48.520;11.228;2022-07-29T12:22:53;29.90;64.50
12720;DHT22;6424;48.520;11.228;2022-07-29T12:25:35;29.80;63.70
12720;DHT22;6424;48.520;11.228;2022-07-29T12:28:17;29.70;64.80
12720;DHT22;6424;48.520;11.228;2022-07-29T12:31:02;29.70;59.90
12720;DHT22;6424;48.520;11.228;2022-07-29T12:33:52;29.50;62.80
12720;DHT22;6424;48.520;11.228;2022-07-29T12:36:34;29.70;60.30
12720;DHT22;6424;48.520;11.228;2022-07-29T12:39:16;29.80;61.00
12720;DHT22;6424;48.520;11.228;2022-07-29T12:41:57;29.90;59.90
12720;DHT22;6424;48.520;11.228;2022-07-29T12:47:26;29.60;59.10
12720;DHT22;6424;48.520;11.228;2022-07-29T12:50:14;29.50;60.30
12720;DHT22;6424;48.520;11.228;2022-07-29T12:53:12;29.30;57.90
12720;DHT22;6424;48.520;11.228;2022-07-29T12:55:55;29.10;59.10
12720;DHT22;6424;48.520;11.228;2022-07-29T12:58:40;29.00;59.80
12720;DHT22;6424;48.520;11.228;2022-07-29T13:01:21;28.80;61.60
12720;DHT22;6424;48.520;11.228;2022-07-29T13:04:02;28.80;59.00
12720;DHT22;6424;48.520;11.228;2022-07-29T13:06:45;28.60;57.70
12720;DHT22;6424;48.520;11.228;2022-07-29T13:09:36;28.50;60.70
12720;DHT22;6424;48.520;11.228;2022-07-29T13:12:17;28.30;62.80
12720;DHT22;6424;48.520;11.228;2022-07-29T13:14:58;28.20;63.00
12720;DHT22;6424;48.520;11.228;2022-07-29T13:17:43;28.10;63.30
12720;DHT22;6424;48.520;11.228;2022-07-29T13:20:25;28.20;62.80
12720;DHT22;6424;48.520;11.228;2022-07-29T13:23:07;28.10;62.00
12720;DHT22;6424;48.520;11.228;2022-07-29T13:25:33;28.00;63.40
12720;DHT22;6424;48.520;11.228;2022-07-29T13:28:14;27.90;64.10
12720;DHT22;6424;48.520;11.228;2022-07-29T13:30:56;27.70;63.90
12720;DHT22;6424;48.520;11.228;2022-07-29T13:33:37;27.40;66.80
12720;DHT22;6424;48.520;11.228;2022-07-29T13:36:17;27.30;68.00
12720;DHT22;6424;48.520;11.228;2022-07-29T13:38:58;27.10;70.30
12720;DHT22;6424;48.520;11.228;2022-07-29T13:41:41;27.00;70.50
12720;DHT22;6424;48.520;11.228;2022-07-29T13:44:22;26.90;69.60
12720;DHT22;6424;48.520;11.228;2022-07-29T13:47:03;26.80;69.20
12720;DHT22;6424;48.520;11.228;2022-07-29T13:49:44;26.60;67.90
12720;DHT22;6424;48.520;11.228;2022-07-29T13:52:25;26.50;68.90
12720;DHT22;6424;48.520;11.228;2022-07-29T13:54:50;26.50;68.60
12720;DHT22;6424;48.520;11.228;2022-07-29T13:57:31;26.40;68.20
12720;DHT22;6424;48.520;11.228;2022-07-29T14:00:12;26.30;68.90
12720;DHT22;6424;48.520;11.228;2022-07-29T14:02:53;26.30;70.30
12720;DHT22;6424;48.520;11.228;2022-07-29T14:05:19;26.20;72.10
12720;DHT22;6424;48.520;11.228;2022-07-29T14:08:00;26.10;73.00
12720;DHT22;6424;48.520;11.228;2022-07-29T14:10:41;26.00;73.40
12720;DHT22;6424;48.520;11.228;2022-07-29T14:13:22;26.00;73.80
12720;DHT22;6424;48.520;11.228;2022-07-29T14:16:03;25.90;74.10
12720;DHT22;6424;48.520;11.228;2022-07-29T14:18:44;25.90;74.60
12720;DHT22;6424;48.520;11.228;2022-07-29T14:21:24;25.80;74.90
12720;DHT22;6424;48.520;11.228;2022-07-29T14:24:06;25.80;75.90
12720;DHT22;6424;48.520;11.228;2022-07-29T14:26:47;25.70;75.00
12720;DHT22;6424;48.520;11.228;2022-07-29T14:29:27;25.70;72.60
12720;DHT22;6424;48.520;11.228;2022-07-29T14:32:09;25.50;70.80
12720;DHT22;6424;48.520;11.228;2022-07-29T14:34:50;25.50;70.50
12720;DHT22;6424;48.520;11.228;2022-07-29T14:37:31;25.40;71.00
12720;DHT22;6424;48.520;11.228;2022-07-29T14:40:12;25.50;71.10
12720;DHT22;6424;48.520;11.228;2022-07-29T14:42:53;25.50;71.20
12720;DHT22;6424;48.520;11.228;2022-07-29T14:45:33;25.50;72.00
12720;DHT22;6424;48.520;11.228;2022-07-29T14:48:14;25.60;72.10
12720;DHT22;6424;48.520;11.228;2022-07-29T14:50:55;25.70;73.30
12720;DHT22;6424;48.520;11.228;2022-07-29T14:53:36;25.80;73.10
12720;DHT22;6424;48.520;11.228;2022-07-29T14:56:17;25.90;74.30
12720;DHT22;6424;48.520;11.228;2022-07-29T14:58:58;25.90;73.30
12720;DHT22;6424;48.520;11.228;2022-07-29T15:01:39;26.00;74.30
12720;DHT22;6424;48.520;11.228;2022-07-29T15:04:20;26.10;73.90
12720;DHT22;6424;48.520;11.228;2022-07-29T15:07:01;26.20;73.30
12720;DHT22;6424;48.520;11.228;2022-07-29T15:09:26;26.30;72.70
12720;DHT22;6424;48.520;11.228;2022-07-29T15:12:07;26.40;72.80
12720;DHT22;6424;48.520;11.228;2022-07-29T15:14:50;26.50;73.00
12720;DHT22;6424;48.520;11.228;2022-07-29T15:17:31;26.50;72.30
12720;DHT22;6424;48.520;11.228;2022-07-29T15:20:12;26.50;73.00
12720;DHT22;6424;48.520;11.228;2022-07-29T15:22:54;26.50;72.90
12720;DHT22;6424;48.520;11.228;2022-07-29T15:25:35;26.50;73.00
12720;DHT22;6424;48.520;11.228;2022-07-29T15:28:16;26.50;72.40
12720;DHT22;6424;48.520;11.228;2022-07-29T15:30:42;26.50;72.80
12720;DHT22;6424;48.520;11.228;2022-07-29T15:33:08;26.50;73.50
12720;DHT22;6424;48.520;11.228;2022-07-29T15:35:50;26.50;72.90
12720;DHT22;6424;48.520;11.228;2022-07-29T15:38:30;26.40;74.30
12720;DHT22;6424;48.520;11.228;2022-07-29T15:41:17;26.40;72.60
12720;DHT22;6424;48.520;11.228;2022-07-29T15:43:58;26.30;73.30
12720;DHT22;6424;48.520;11.228;2022-07-29T15:46:38;26.30;73.80
12720;DHT22;6424;48.520;11.228;2022-07-29T15:49:39;26.30;75.30
12720;DHT22;6424;48.520;11.228;2022-07-29T15:52:21;26.20;76.30
12720;DHT22;6424;48.520;11.228;2022-07-29T15:54:46;26.20;77.30
12720;DHT22;6424;48.520;11.228;2022-07-29T15:57:27;26.10;78.30
12720;DHT22;6424;48.520;11.228;2022-07-29T16:00:08;26.00;79.10
12720;DHT22;6424;48.520;11.228;2022-07-29T16:02:49;25.90;77.40
12720;DHT22;6424;48.520;11.228;2022-07-29T16:05:30;25.80;77.70
12720;DHT22;6424;48.520;11.228;2022-07-29T16:08:11;25.60;77.30
12720;DHT22;6424;48.520;11.228;2022-07-29T16:10:52;25.50;77.70
12720;DHT22;6424;48.520;11.228;2022-07-29T16:13:33;25.40;76.50
12720;DHT22;6424;48.520;11.228;2022-07-29T16:16:13;25.30;75.20
12720;DHT22;6424;48.520;11.228;2022-07-29T16:18:56;25.30;74.60
12720;DHT22;6424;48.520;11.228;2022-07-29T16:21:37;25.20;74.70
12720;DHT22;6424;48.520;11.228;2022-07-29T16:24:18;25.10;74.00
12720;DHT22;6424;48.520;11.228;2022-07-29T16:26:59;25.00;73.80
12720;DHT22;6424;48.520;11.228;2022-07-29T16:29:39;24.90;73.60
12720;DHT22;6424;48.520;11.228;2022-07-29T16:32:20;24.80;73.70
12720;DHT22;6424;48.520;11.228;2022-07-29T16:35:01;24.70;73.20
12720;DHT22;6424;48.520;11.228;2022-07-29T16:37:44;24.50;75.30
12720;DHT22;6424;48.520;11.228;2022-07-29T16:40:11;24.30;77.30
12720;DHT22;6424;48.520;11.228;2022-07-29T16:42:52;24.10;79.10
12720;DHT22;6424;48.520;11.228;2022-07-29T16:45:33;23.80;83.60
12720;DHT22;6424;48.520;11.228;2022-07-29T16:48:14;23.60;84.90
12720;DHT22;6424;48.520;11.228;2022-07-29T16:50:56;23.40;85.90
12720;DHT22;6424;48.520;11.228;2022-07-29T16:53:36;23.30;85.70
12720;DHT22;6424;48.520;11.228;2022-07-29T16:56:17;23.10;85.20
12720;DHT22;6424;48.520;11.228;2022-07-29T16:58:58;23.00;86.20
12720;DHT22;6424;48.520;11.228;2022-07-29T17:01:39;23.00;89.10
12720;DHT22;6424;48.520;11.228;2022-07-29T17:04:20;22.80;87.90
12720;DHT22;6424;48.520;11.228;2022-07-29T17:07:01;22.70;89.20
12720;DHT22;6424;48.520;11.228;2022-07-29T17:09:27;22.50;87.20
12720;DHT22;6424;48.520;11.228;2022-07-29T17:12:09;22.40;87.80
12720;DHT22;6424;48.520;11.228;2022-07-29T17:14:49;22.40;89.80
12720;DHT22;6424;48.520;11.228;2022-07-29T17:17:30;22.30;91.30
12720;DHT22;6424;48.520;11.228;2022-07-29T17:20:11;22.20;92.90
12720;DHT22;6424;48.520;11.228;2022-07-29T17:22:53;22.10;95.10
12720;DHT22;6424;48.520;11.228;2022-07-29T17:25:34;22.00;96.70
12720;DHT22;6424;48.520;11.228;2022-07-29T17:28:15;21.90;99.90
12720;DHT22;6424;48.520;11.228;2022-07-29T17:30:55;21.70;99.90
12720;DHT22;6424;48.520;11.228;2022-07-29T17:33:21;21.50;99.90
12720;DHT22;6424;48.520;11.228;2022-07-29T17:36:02;21.30;99.90